createdAt,value
2018-09-02T00:01:02.051Z,87.70
2018-09-02T00:03:34.625Z,87.80
2018-09-02T00:06:07.798Z,87.80
2018-09-02T00:08:40.457Z,87.80
2018-09-02T00:11:13.022Z,87.70
2018-09-02T00:13:45.660Z,87.80
2018-09-02T00:16:18.306Z,88.10
2018-09-02T00:18:50.888Z,88.50
2018-09-02T00:21:23.432Z,89.00
2018-09-02T00:23:56.030Z,89.10
2018-09-02T00:26:28.501Z,89.10
2018-09-02T00:29:01.145Z,89.40
2018-09-02T00:31:33.719Z,89.70
2018-09-02T00:34:06.277Z,89.70
2018-09-02T00:36:38.784Z,90.00
2018-09-02T00:39:12.942Z,89.80
2018-09-02T00:41:45.428Z,89.70
2018-09-02T00:44:18.053Z,90.00
2018-09-02T00:46:50.458Z,89.90
2018-09-02T00:49:23.052Z,89.70
2018-09-02T00:51:55.511Z,89.60
2018-09-02T00:54:28.026Z,89.50
2018-09-02T00:57:00.689Z,90.00
2018-09-02T00:59:33.351Z,90.00
2018-09-02T01:02:05.921Z,90.10
2018-09-02T01:04:38.597Z,90.30
2018-09-02T01:07:11.081Z,90.30
2018-09-02T01:09:43.728Z,90.40
2018-09-02T01:12:16.242Z,90.40
2018-09-02T01:14:48.818Z,90.40
2018-09-02T01:17:21.336Z,90.40
2018-09-02T01:19:53.950Z,90.60
2018-09-02T01:22:26.549Z,90.60
2018-09-02T01:24:59.217Z,90.60
2018-09-02T01:27:33.586Z,90.70
2018-09-02T01:30:06.321Z,90.60
2018-09-02T01:32:38.851Z,90.70
2018-09-02T01:35:15.256Z,90.80
2018-09-02T01:37:47.733Z,90.80
2018-09-02T01:40:20.288Z,90.80
2018-09-02T01:42:53.013Z,90.80
2018-09-02T01:45:25.672Z,90.60
2018-09-02T01:47:58.225Z,90.70
2018-09-02T01:50:30.841Z,90.60
2018-09-02T01:53:03.356Z,90.50
2018-09-02T01:55:35.907Z,90.50
2018-09-02T01:58:09.454Z,90.50
2018-09-02T02:00:42.046Z,90.60
2018-09-02T02:03:14.553Z,90.60
2018-09-02T02:05:47.184Z,90.70
2018-09-02T02:08:19.617Z,90.70
2018-09-02T02:10:52.223Z,90.70
2018-09-02T02:13:24.769Z,90.90
2018-09-02T02:15:57.392Z,91.00
2018-09-02T02:18:29.928Z,91.00
2018-09-02T02:21:02.503Z,90.90
2018-09-02T02:23:35.336Z,90.90
2018-09-02T02:26:07.997Z,90.80
2018-09-02T02:28:40.532Z,90.80
2018-09-02T02:31:13.124Z,90.70
2018-09-02T02:33:45.633Z,90.70
2018-09-02T02:36:18.291Z,90.80
2018-09-02T02:38:50.879Z,90.70
2018-09-02T02:41:23.513Z,90.80
2018-09-02T02:43:55.985Z,90.70
2018-09-02T02:46:28.534Z,90.80
2018-09-02T02:49:01.097Z,90.70
2018-09-02T02:51:33.706Z,90.70
2018-09-02T02:54:06.202Z,90.60
2018-09-02T02:56:38.768Z,91.00
2018-09-02T02:59:11.310Z,91.10
2018-09-02T03:01:43.945Z,91.00
2018-09-02T03:04:16.412Z,91.00
2018-09-02T03:06:49.117Z,91.00
2018-09-02T03:09:21.656Z,90.90
2018-09-02T03:11:54.331Z,90.80
2018-09-02T03:14:26.846Z,90.70
2018-09-02T03:16:59.374Z,90.50
2018-09-02T03:19:31.909Z,90.30
2018-09-02T03:22:04.530Z,90.30
2018-09-02T03:24:37.061Z,90.10
2018-09-02T03:27:09.667Z,90.10
2018-09-02T03:29:42.352Z,90.20
2018-09-02T03:32:14.919Z,90.20
2018-09-02T03:34:47.413Z,90.50
2018-09-02T03:37:20.194Z,90.60
2018-09-02T03:39:52.672Z,90.60
2018-09-02T03:42:25.289Z,90.80
2018-09-02T03:44:57.783Z,90.80
2018-09-02T03:47:30.359Z,90.80
2018-09-02T03:50:02.794Z,90.90
2018-09-02T03:52:35.329Z,91.00
2018-09-02T03:55:08.252Z,91.00
2018-09-02T03:57:40.831Z,91.00
2018-09-02T04:00:13.390Z,91.00
2018-09-02T04:02:45.960Z,91.30
2018-09-02T04:05:18.516Z,91.40
2018-09-02T04:07:51.096Z,91.60
2018-09-02T04:10:23.551Z,91.60
2018-09-02T04:12:56.070Z,91.60
2018-09-02T04:15:28.746Z,91.70
2018-09-02T04:18:01.293Z,91.70
2018-09-02T04:20:36.030Z,91.70
2018-09-02T04:23:08.862Z,91.80
2018-09-02T04:25:41.377Z,91.80
2018-09-02T04:28:13.898Z,91.80
2018-09-02T04:30:46.460Z,91.90
2018-09-02T04:33:19.075Z,91.90
2018-09-02T04:35:51.593Z,92.00
2018-09-02T04:38:24.150Z,92.20
2018-09-02T04:40:56.656Z,92.30
2018-09-02T04:43:29.286Z,92.30
2018-09-02T04:46:01.799Z,92.30
2018-09-02T04:48:34.392Z,92.30
2018-09-02T04:51:07.147Z,92.40
2018-09-02T04:53:39.700Z,92.20
2018-09-02T04:56:12.285Z,92.30
2018-09-02T04:58:44.911Z,92.00
2018-09-02T05:01:17.391Z,91.90
2018-09-02T05:03:50.020Z,92.00
2018-09-02T05:06:22.608Z,92.00
2018-09-02T05:08:55.224Z,92.00
2018-09-02T05:11:27.699Z,92.40
2018-09-02T05:14:00.302Z,92.60
2018-09-02T05:16:32.871Z,93.00
2018-09-02T05:19:05.501Z,93.30
2018-09-02T05:21:38.027Z,93.30
2018-09-02T05:24:10.731Z,93.50
2018-09-02T05:26:43.280Z,93.30
2018-09-02T05:29:15.914Z,93.30
2018-09-02T05:31:48.463Z,93.50
2018-09-02T05:34:21.085Z,93.50
2018-09-02T05:36:53.750Z,93.80
2018-09-02T05:39:26.407Z,94.00
2018-09-02T05:41:58.993Z,94.10
2018-09-02T05:44:31.613Z,94.20
2018-09-02T05:47:04.322Z,94.70
2018-09-02T05:49:36.960Z,94.90
2018-09-02T05:52:09.666Z,95.10
2018-09-02T05:54:42.240Z,95.10
2018-09-02T05:57:15.151Z,95.30
2018-09-02T05:59:47.858Z,95.70
2018-09-02T06:02:20.607Z,96.20
2018-09-02T06:04:53.271Z,97.10
2018-09-02T06:07:25.799Z,97.00
2018-09-02T06:09:58.776Z,97.70
2018-09-02T06:12:31.249Z,97.20
2018-09-02T06:15:03.867Z,97.10
2018-09-02T06:17:36.471Z,97.60
2018-09-02T06:20:12.582Z,98.30
2018-09-02T06:22:46.339Z,99.50
2018-09-02T06:25:19.711Z,98.70
2018-09-02T06:27:52.389Z,97.80
2018-09-02T06:30:25.714Z,98.50
2018-09-02T06:32:58.435Z,98.40
2018-09-02T06:35:30.972Z,98.60
2018-09-02T06:38:03.640Z,98.80
2018-09-02T06:40:36.215Z,98.60
2018-09-02T06:43:08.960Z,99.80
2018-09-02T06:45:41.616Z,99.70
2018-09-02T06:48:16.700Z,99.90
2018-09-02T06:50:49.927Z,99.90
2018-09-02T06:53:22.514Z,99.90
2018-09-02T06:55:55.032Z,99.90
2018-09-02T06:58:27.855Z,99.90
2018-09-02T07:01:00.409Z,99.90
2018-09-02T07:03:33.018Z,99.90
2018-09-02T07:06:05.614Z,99.90
2018-09-02T07:08:38.209Z,99.90
2018-09-02T07:11:10.763Z,99.90
2018-09-02T07:13:43.380Z,99.90
2018-09-02T07:16:15.917Z,99.90
2018-09-02T07:18:48.554Z,99.90
2018-09-02T07:21:21.101Z,99.90
2018-09-02T07:23:53.754Z,99.90
2018-09-02T07:26:26.309Z,99.90
2018-09-02T07:28:58.911Z,99.90
2018-09-02T07:31:31.600Z,99.90
2018-09-02T07:34:04.192Z,99.90
2018-09-02T07:36:36.771Z,99.90
2018-09-02T07:39:11.413Z,99.90
2018-09-02T07:41:43.946Z,99.90
2018-09-02T07:44:16.610Z,99.90
2018-09-02T07:46:49.142Z,99.90
2018-09-02T07:49:21.876Z,99.90
2018-09-02T07:51:54.436Z,99.90
2018-09-02T07:54:26.991Z,99.90
2018-09-02T07:56:59.571Z,99.90
2018-09-02T07:59:32.166Z,99.90
2018-09-02T08:02:04.654Z,99.90
2018-09-02T08:04:37.248Z,99.90
2018-09-02T08:07:09.640Z,99.90
2018-09-02T08:09:42.297Z,99.90
2018-09-02T08:12:14.815Z,99.90
2018-09-02T08:14:47.370Z,99.90
2018-09-02T08:17:20.275Z,99.90
2018-09-02T08:19:53.039Z,99.90
2018-09-02T08:22:25.687Z,99.50
2018-09-02T08:24:58.385Z,98.90
2018-09-02T08:27:30.897Z,97.60
2018-09-02T08:30:03.491Z,96.50
2018-09-02T08:32:36.105Z,95.80
2018-09-02T08:35:08.798Z,94.50
2018-09-02T08:37:41.416Z,94.70
2018-09-02T08:40:14.118Z,95.00
2018-09-02T08:42:46.676Z,94.60
2018-09-02T08:45:19.286Z,94.20
2018-09-02T08:47:51.979Z,93.30
2018-09-02T08:50:24.582Z,92.70
2018-09-02T08:52:57.108Z,91.90
2018-09-02T08:55:29.742Z,91.90
2018-09-02T08:58:02.348Z,91.30
2018-09-02T09:00:34.959Z,90.70
2018-09-02T09:03:07.657Z,90.90
2018-09-02T09:05:40.375Z,90.70
2018-09-02T09:08:13.240Z,90.60
2018-09-02T09:10:45.842Z,90.50
2018-09-02T09:13:18.382Z,90.40
2018-09-02T09:15:51.082Z,89.60
2018-09-02T09:18:23.548Z,86.50
2018-09-02T09:20:56.177Z,88.10
2018-09-02T09:23:28.700Z,86.60
2018-09-02T09:26:01.355Z,86.40
2018-09-02T09:28:33.917Z,85.80
2018-09-02T09:31:06.549Z,84.20
2018-09-02T09:33:39.149Z,83.70
2018-09-02T09:36:11.681Z,83.30
2018-09-02T09:38:44.205Z,82.40
2018-09-02T09:41:16.801Z,82.20
2018-09-02T09:43:49.393Z,82.00
2018-09-02T09:46:22.078Z,81.80
2018-09-02T09:48:54.603Z,81.50
2018-09-02T09:51:27.199Z,81.70
2018-09-02T09:53:59.730Z,80.90
2018-09-02T09:56:32.310Z,81.20
2018-09-02T09:59:04.834Z,80.00
2018-09-02T10:01:37.462Z,77.70
2018-09-02T10:04:09.971Z,78.80
2018-09-02T10:06:42.643Z,78.40
2018-09-02T10:09:16.432Z,77.20
2018-09-02T10:11:49.107Z,76.70
2018-09-02T10:14:21.602Z,77.00
2018-09-02T10:16:54.291Z,77.40
2018-09-02T10:19:26.823Z,77.00
2018-09-02T10:21:59.520Z,76.20
2018-09-02T10:24:32.150Z,75.20
2018-09-02T10:27:04.883Z,74.80
2018-09-02T10:29:37.418Z,74.20
2018-09-02T10:32:10.374Z,74.30
2018-09-02T10:34:42.868Z,72.50
2018-09-02T10:37:15.628Z,70.70
2018-09-02T10:39:48.157Z,72.20
2018-09-02T10:42:20.896Z,72.80
2018-09-02T10:44:53.489Z,70.70
2018-09-02T10:47:26.124Z,69.00
2018-09-02T10:49:58.609Z,68.50
2018-09-02T10:52:31.207Z,68.50
2018-09-02T10:55:03.707Z,70.00
2018-09-02T10:57:36.320Z,68.50
2018-09-02T11:00:11.056Z,68.90
2018-09-02T11:02:43.705Z,69.40
2018-09-02T11:05:16.204Z,67.90
2018-09-02T11:07:48.833Z,68.30
2018-09-02T11:10:21.487Z,67.80
2018-09-02T11:12:54.122Z,67.40
2018-09-02T11:15:26.791Z,66.60
2018-09-02T11:17:59.563Z,65.40
2018-09-02T11:20:32.272Z,65.40
2018-09-02T11:23:04.913Z,64.10
2018-09-02T11:25:37.657Z,63.10
2018-09-02T11:28:10.274Z,62.70
2018-09-02T11:30:42.889Z,62.10
2018-09-02T11:33:15.654Z,62.30
2018-09-02T11:35:48.264Z,61.50
2018-09-02T11:38:20.980Z,60.90
2018-09-02T11:40:53.518Z,61.30
2018-09-02T11:43:26.163Z,59.60
2018-09-02T11:45:58.663Z,59.40
2018-09-02T11:48:31.249Z,59.40
2018-09-02T11:51:03.888Z,59.30
2018-09-02T11:53:36.517Z,58.80
2018-09-02T11:56:09.246Z,57.90
2018-09-02T11:58:41.875Z,57.30
2018-09-02T12:01:14.462Z,56.80
2018-09-02T12:03:47.150Z,55.80
2018-09-02T12:06:19.698Z,55.00
2018-09-02T12:08:52.639Z,54.80
2018-09-02T12:11:25.110Z,55.10
2018-09-02T12:13:57.813Z,54.10
2018-09-02T12:16:30.421Z,54.60
2018-09-02T12:19:03.124Z,54.40
2018-09-02T12:21:35.658Z,54.10
2018-09-02T12:24:08.326Z,54.00
2018-09-02T12:26:40.865Z,54.00
2018-09-02T12:29:13.498Z,53.20
2018-09-02T12:31:46.897Z,53.00
2018-09-02T12:34:19.496Z,52.90
2018-09-02T12:36:52.037Z,52.20
2018-09-02T12:39:24.567Z,52.80
2018-09-02T12:41:57.076Z,51.30
2018-09-02T12:44:29.684Z,51.90
2018-09-02T12:47:02.240Z,51.80
2018-09-02T12:49:34.837Z,51.00
2018-09-02T12:52:07.596Z,50.40
2018-09-02T12:54:40.115Z,49.70
2018-09-02T12:57:12.773Z,50.30
2018-09-02T12:59:45.308Z,50.60
2018-09-02T13:02:17.800Z,51.60
2018-09-02T13:04:50.358Z,51.00
2018-09-02T13:07:22.917Z,50.50
2018-09-02T13:09:55.515Z,49.40
2018-09-02T13:12:28.104Z,50.00
2018-09-02T13:15:00.724Z,50.50
2018-09-02T13:17:33.429Z,51.40
2018-09-02T13:20:06.134Z,51.20
2018-09-02T13:22:38.656Z,51.00
2018-09-02T13:25:11.393Z,50.20
2018-09-02T13:27:43.919Z,50.20
2018-09-02T13:30:16.589Z,50.30
2018-09-02T13:32:49.207Z,49.90
2018-09-02T13:35:21.835Z,49.40
2018-09-02T13:37:54.342Z,48.60
2018-09-02T13:40:27.062Z,47.30
2018-09-02T13:42:59.691Z,47.10
2018-09-02T13:45:32.537Z,47.80
2018-09-02T13:48:05.369Z,48.80
2018-09-02T13:50:39.524Z,49.40
2018-09-02T13:53:12.766Z,49.40
2018-09-02T13:55:45.462Z,49.60
2018-09-02T13:58:18.071Z,49.20
2018-09-02T14:00:50.718Z,49.30
2018-09-02T14:03:23.192Z,49.20
2018-09-02T14:05:55.788Z,48.90
2018-09-02T14:08:28.334Z,48.90
2018-09-02T14:11:00.997Z,47.60
2018-09-02T14:13:33.519Z,47.40
2018-09-02T14:16:06.141Z,47.30
2018-09-02T14:18:38.625Z,46.40
2018-09-02T14:21:11.143Z,45.70
2018-09-02T14:23:43.658Z,45.70
2018-09-02T14:26:16.438Z,45.60
2018-09-02T14:28:49.012Z,44.90
2018-09-02T14:31:21.601Z,44.00
2018-09-02T14:33:54.154Z,43.60
2018-09-02T14:36:26.784Z,43.50
2018-09-02T14:38:59.312Z,43.90
2018-09-02T14:41:31.901Z,44.20
2018-09-02T14:44:04.416Z,45.40
2018-09-02T14:46:37.336Z,45.70
2018-09-02T14:49:10.850Z,45.60
2018-09-02T14:51:43.484Z,45.10
2018-09-02T14:54:16.110Z,44.60
2018-09-02T14:56:48.724Z,44.70
2018-09-02T14:59:21.569Z,44.60
2018-09-02T15:01:54.281Z,43.90
2018-09-02T15:04:26.848Z,42.80
2018-09-02T15:06:59.441Z,43.10
2018-09-02T15:09:32.083Z,43.50
2018-09-02T15:12:04.714Z,44.70
2018-09-02T15:14:37.318Z,45.50
2018-09-02T15:17:10.124Z,47.00
2018-09-02T15:19:42.619Z,47.10
2018-09-02T15:22:15.264Z,47.10
2018-09-02T15:24:47.840Z,46.60
2018-09-02T15:27:20.607Z,45.80
2018-09-02T15:29:53.209Z,46.30
2018-09-02T15:32:25.791Z,46.80
2018-09-02T15:34:58.325Z,46.80
2018-09-02T15:37:30.886Z,46.80
2018-09-02T15:40:03.407Z,46.90
2018-09-02T15:42:35.988Z,47.00
2018-09-02T15:45:08.681Z,47.30
2018-09-02T15:47:41.333Z,47.00
2018-09-02T15:50:13.843Z,47.20
2018-09-02T15:52:46.550Z,47.50
2018-09-02T15:55:19.059Z,48.00
2018-09-02T15:57:51.664Z,47.80
2018-09-02T16:00:24.188Z,47.90
2018-09-02T16:02:56.738Z,48.30
2018-09-02T16:05:29.413Z,49.20
2018-09-02T16:08:01.971Z,48.90
2018-09-02T16:10:34.574Z,49.50
2018-09-02T16:13:07.439Z,49.60
2018-09-02T16:15:40.030Z,49.60
2018-09-02T16:18:12.714Z,49.60
2018-09-02T16:20:45.232Z,49.50
2018-09-02T16:23:17.872Z,49.60
2018-09-02T16:25:50.466Z,50.20
2018-09-02T16:28:23.005Z,50.90
2018-09-02T16:30:55.509Z,51.60
2018-09-02T16:33:28.144Z,52.40
2018-09-02T16:36:00.792Z,53.30
2018-09-02T16:38:33.473Z,53.40
2018-09-02T16:41:05.944Z,53.60
2018-09-02T16:43:38.561Z,54.60
2018-09-02T16:46:11.255Z,54.50
2018-09-02T16:48:44.077Z,54.60
2018-09-02T16:51:16.665Z,55.30
2018-09-02T16:53:49.322Z,55.90
2018-09-02T16:56:21.882Z,56.30
2018-09-02T16:58:54.447Z,57.40
2018-09-02T17:01:27.032Z,57.70
2018-09-02T17:04:02.345Z,58.00
2018-09-02T17:06:35.296Z,58.40
2018-09-02T17:09:12.475Z,58.90
2018-09-02T17:11:45.150Z,59.30
2018-09-02T17:14:17.675Z,59.80
2018-09-02T17:16:50.159Z,60.30
2018-09-02T17:19:25.725Z,61.00
2018-09-02T17:21:58.350Z,61.40
2018-09-02T17:24:31.053Z,61.80
2018-09-02T17:27:03.633Z,62.30
2018-09-02T17:29:36.332Z,63.00
2018-09-02T17:32:11.852Z,63.70
2018-09-02T17:34:44.559Z,64.50
2018-09-02T17:37:17.262Z,64.70
2018-09-02T17:39:49.861Z,65.00
2018-09-02T17:42:22.419Z,65.50
2018-09-02T17:44:55.015Z,65.80
2018-09-02T17:47:27.550Z,65.70
2018-09-02T17:50:00.153Z,66.20
2018-09-02T17:52:32.734Z,67.10
2018-09-02T17:55:05.558Z,68.00
2018-09-02T17:57:38.381Z,68.60
2018-09-02T18:00:13.904Z,68.60
2018-09-02T18:02:46.583Z,69.40
2018-09-02T18:05:19.383Z,69.10
2018-09-02T18:07:52.079Z,69.70
2018-09-02T18:10:24.765Z,70.20
2018-09-02T18:12:57.278Z,70.80
2018-09-02T18:15:29.870Z,71.20
2018-09-02T18:18:02.381Z,71.60
2018-09-02T18:20:35.072Z,72.10
2018-09-02T18:23:07.725Z,72.70
2018-09-02T18:25:40.409Z,73.00
2018-09-02T18:28:15.977Z,73.40
2018-09-02T18:30:48.615Z,73.90
2018-09-02T18:33:21.158Z,74.20
2018-09-02T18:35:53.884Z,74.70
2018-09-02T18:38:26.587Z,75.00
2018-09-02T18:40:59.328Z,75.70
2018-09-02T18:43:31.919Z,76.00
2018-09-02T18:46:04.628Z,76.30
2018-09-02T18:48:37.243Z,76.60
2018-09-02T18:51:10.086Z,77.00
2018-09-02T18:53:42.857Z,77.50
2018-09-02T18:56:15.667Z,77.70
2018-09-02T18:58:48.379Z,78.90
2018-09-02T19:01:21.152Z,78.40
2018-09-02T19:03:53.769Z,78.50
2018-09-02T19:06:26.295Z,79.10
2018-09-02T19:09:01.791Z,79.40
2018-09-02T19:11:34.576Z,79.80
2018-09-02T19:14:07.227Z,80.20
2018-09-02T19:16:39.801Z,80.70
2018-09-02T19:19:12.715Z,80.70
2018-09-02T19:21:45.696Z,81.30
2018-09-02T19:24:19.254Z,81.70
2018-09-02T19:26:51.983Z,81.70
2018-09-02T19:29:28.384Z,82.20
2018-09-02T19:32:01.469Z,82.50
2018-09-02T19:34:34.652Z,82.80
2018-09-02T19:37:07.621Z,83.10
2018-09-02T19:39:40.083Z,83.30
2018-09-02T19:42:13.370Z,83.70
2018-09-02T19:44:46.347Z,83.90
2018-09-02T19:47:19.176Z,84.00
2018-09-02T19:49:52.167Z,84.10
2018-09-02T19:52:25.422Z,84.20
2018-09-02T19:54:57.948Z,84.40
2018-09-02T19:57:30.737Z,84.60
2018-09-02T20:00:03.345Z,84.70
2018-09-02T20:02:36.142Z,84.80
2018-09-02T20:05:09.071Z,84.90
2018-09-02T20:07:50.057Z,85.10
2018-09-02T20:10:22.792Z,85.20
2018-09-02T20:12:55.431Z,85.60
2018-09-02T20:15:28.084Z,85.80
2018-09-02T20:18:00.681Z,86.10
2018-09-02T20:20:33.176Z,85.90
2018-09-02T20:23:05.796Z,86.20
2018-09-02T20:25:38.389Z,86.50
2018-09-02T20:28:11.152Z,86.70
2018-09-02T20:30:43.644Z,86.70
2018-09-02T20:33:16.397Z,86.40
2018-09-02T20:35:49.112Z,86.10
2018-09-02T20:38:21.735Z,85.90
2018-09-02T20:40:54.197Z,86.60
2018-09-02T20:43:26.938Z,85.80
2018-09-02T20:45:59.416Z,85.80
2018-09-02T20:48:32.027Z,85.70
2018-09-02T20:51:04.605Z,85.70
2018-09-02T20:53:37.193Z,85.60
2018-09-02T20:56:09.730Z,85.40
2018-09-02T20:58:42.393Z,85.70
2018-09-02T21:01:14.997Z,85.70
2018-09-02T21:03:47.774Z,85.10
2018-09-02T21:06:20.357Z,85.20
2018-09-02T21:09:03.196Z,85.10
2018-09-02T21:11:36.195Z,85.20
2018-09-02T21:14:09.499Z,86.00
2018-09-02T21:16:42.027Z,84.80
2018-09-02T21:19:14.676Z,84.70
2018-09-02T21:21:47.198Z,84.60
2018-09-02T21:24:19.855Z,84.60
2018-09-02T21:26:52.356Z,84.50
2018-09-02T21:29:25.020Z,84.30
2018-09-02T21:31:57.511Z,84.20
2018-09-02T21:34:30.158Z,84.20
2018-09-02T21:37:02.939Z,84.20
2018-09-02T21:39:35.525Z,84.40
2018-09-02T21:42:08.100Z,84.50
2018-09-02T21:44:40.642Z,84.10
2018-09-02T21:47:13.186Z,84.20
2018-09-02T21:49:46.225Z,84.30
2018-09-02T21:52:18.722Z,84.10
2018-09-02T21:54:51.330Z,83.90
2018-09-02T21:57:23.913Z,83.80
2018-09-02T21:59:56.536Z,84.00
2018-09-02T22:02:29.173Z,83.80
2018-09-02T22:05:01.801Z,83.60
2018-09-02T22:07:34.414Z,83.90
2018-09-02T22:10:07.088Z,83.70
2018-09-02T22:12:39.654Z,83.70
2018-09-02T22:15:13.888Z,84.00
2018-09-02T22:17:46.400Z,83.90
2018-09-02T22:20:19.024Z,83.90
2018-09-02T22:22:51.531Z,83.90
2018-09-02T22:25:24.210Z,83.90
2018-09-02T22:27:56.774Z,83.90
2018-09-02T22:30:29.358Z,83.60
2018-09-02T22:33:01.891Z,83.90
2018-09-02T22:35:34.541Z,84.30
2018-09-02T22:38:07.084Z,84.20
2018-09-02T22:40:39.624Z,84.50
2018-09-02T22:43:12.132Z,84.60
2018-09-02T22:45:44.698Z,84.60
2018-09-02T22:48:17.345Z,84.80
2018-09-02T22:50:49.954Z,84.90
2018-09-02T22:53:22.490Z,85.10
2018-09-02T22:55:55.065Z,85.10
2018-09-02T22:58:27.660Z,85.30
2018-09-02T23:01:00.468Z,85.50
2018-09-02T23:03:32.946Z,85.40
2018-09-02T23:06:05.592Z,85.50
2018-09-02T23:08:38.115Z,85.80
2018-09-02T23:11:10.800Z,86.10
2018-09-02T23:13:43.334Z,86.20
2018-09-02T23:16:15.951Z,86.40
2018-09-02T23:18:48.599Z,86.60
2018-09-02T23:21:21.198Z,86.60
2018-09-02T23:23:53.911Z,87.00
2018-09-02T23:26:26.699Z,87.20
2018-09-02T23:28:59.652Z,88.00
2018-09-02T23:31:32.149Z,87.60
2018-09-02T23:34:04.746Z,87.80
2018-09-02T23:36:37.285Z,88.20
2018-09-02T23:39:13.173Z,88.40
2018-09-02T23:41:45.712Z,88.50
2018-09-02T23:44:18.338Z,88.60
2018-09-02T23:46:50.845Z,89.00
2018-09-02T23:49:23.421Z,89.40
2018-09-02T23:51:55.905Z,89.40
2018-09-02T23:54:28.565Z,89.90
2018-09-02T23:57:01.169Z,90.00
2018-09-02T23:59:33.758Z,90.20
